< < Back
Terminal Aerodrome Forecast


Current Version              Previous Versions:   1  2  3  4  5  6  7  8  9  

Terminal Aerodrome Forecast

199
FTUS42 KFFC 171738
TAFCSG
TAF
KCSG 171738Z 1718/1818 10006KT 6SM -SHRA OVC008
      TEMPO 1718/1722 4SM SHRA BR
     FM180000 08003KT 4SM -SHRA BR OVC007
     FM180500 00000KT 2SM -DZ BR BKN004
     FM181500 09004KT 6SM BR BKN007
     FM181700 12005KT P6SM BKN022=



Latest METAR

063
SAUS70 KWBC 180300 RRA
MTRCSG
METAR KCSG 180251Z AUTO 07004KT 10SM OVC005 17/16 A2998 RMK AO2 RAE15
SLP150 P0001 60011 T01670161 53001


USA.gov is the U.S. government's official web portal to all federal, state and local government web resources and services.